• Join FlightAware (Why Join?)
  • Login
  • US Flag 
01:10AM EST


 

Airport Tracker/Info


-or-


 

Live Flight TrackerFlight Track Log ✈ N931PC ✈ 28-Jun-2013 ✈ KCPS - KBPK

Flight Track Log - Related Links

Times and Time Zones

All times are in EDT time to prevent confusion due to time zone crossing. See the N931PC flight status page for this flight to view local times or setup timezone preferences in your user account.

Time Position Orientation Groundspeed Altitude Reporting Facility
EDT Latitude Longitude Course Direction KTS MPH feet Rate Location/Type
12:07PM 38.5833 -90.2167 218° Southwest 103 119 1,800  Level Gateway (St. Louis) TRACON
12:08PM 38.5500 -90.2333 201° Southwest 114 131 2,400 600 Climbing Gateway (St. Louis) TRACON
12:08PM 38.5333 -90.2500 218° Southwest 118 136 3,000 540 Climbing Gateway (St. Louis) TRACON
12:10PM 38.5000 -90.2667 201° Southwest 123 142 3,600 420 Climbing Gateway (St. Louis) TRACON
12:11PM 38.4667 -90.2833 201° Southwest 129 148 4,000 420 Climbing Gateway (St. Louis) TRACON
12:11PM 38.4333 -90.3000 201° Southwest 132 152 4,500 480 Climbing Gateway (St. Louis) TRACON
12:12PM 38.3647 -90.3688 218° Southwest  Level FlightAware Approximate
12:12PM 38.4000 -90.3333 218° Southwest 126 145 4,900  Level Gateway (St. Louis) TRACON
12:13PM 38.3939 -90.3483 243° Southwest 126 145 5,100 420 Climbing Kansas City Center
12:14PM 38.3658 -90.3783 220° Southwest 129 148 5,600 480 Climbing Kansas City Center
12:15PM 38.3392 -90.4078 221° Southwest 128 147 6,100 420 Climbing Kansas City Center
12:16PM 38.3111 -90.4378 220° Southwest 130 150 6,500 300 Climbing Kansas City Center
12:17PM 38.2839 -90.4672 220° Southwest 129 148 6,800 360 Climbing Kansas City Center
12:18PM 38.2492 -90.5017 218° Southwest 131 151 7,300 420 Climbing Kansas City Center
12:19PM 38.2217 -90.5328 222° Southwest 132 152 7,700 300 Climbing Kansas City Center
12:20PM 38.1931 -90.5619 219° Southwest 132 152 8,000 120 Climbing Kansas City Center
12:21PM 38.1639 -90.5964 223° Southwest 140 161 8,000  Level Kansas City Center
12:22PM 38.1319 -90.6319 221° Southwest 149 171 8,000  Level Kansas City Center
12:23PM 38.0978 -90.6697 221° Southwest 159 183 8,000  Level Kansas City Center
12:24PM 38.0589 -90.7108 220° Southwest 152 175 8,000  Level Kansas City Center
12:25PM 38.0233 -90.7481 220° Southwest 162 186 8,000  Level Kansas City Center
12:26PM 37.9900 -90.7842 220° Southwest 160 184 8,000  Level Kansas City Center
12:27PM 37.9556 -90.8211 220° Southwest 160 184 8,000  Level Kansas City Center
12:29PM 37.9225 -90.8583 222° Southwest 160 184 8,000  Level Kansas City Center
12:30PM 37.8872 -90.8936 218° Southwest 161 185 8,000  Level Kansas City Center
12:31PM 37.8486 -90.9375 222° Southwest 157 181 8,000  Level Kansas City Center
12:32PM 37.8136 -90.9725 218° Southwest 159 183 8,000  Level Kansas City Center
12:33PM 37.7792 -91.0092 220° Southwest 160 184 8,000  Level Kansas City Center
12:34PM 37.7439 -91.0453 219° Southwest 162 186 8,000  Level Kansas City Center
12:35PM 37.7103 -91.0839 222° Southwest 162 186 8,000  Level Kansas City Center
12:36PM 37.6683 -91.1283 220° Southwest 163 188 8,000  Level Kansas City Center
12:37PM 37.6331 -91.1656 220° Southwest 163 188 8,000  Level Kansas City Center
12:38PM 37.5969 -91.2036 220° Southwest 165 190 8,000  Level Kansas City Center
12:39PM 37.5619 -91.2403 220° Southwest 165 190 8,000  Level Kansas City Center
12:40PM 37.5261 -91.2792 221° Southwest 167 192 8,000  Level Kansas City Center
12:41PM 37.4908 -91.3153 219° Southwest 164 189 8,000  Level Kansas City Center
12:42PM 37.4561 -91.3525 220° Southwest 163 188 8,000  Level Kansas City Center
12:43PM 37.4133 -91.3975 220° Southwest 166 191 8,000  Level Kansas City Center
12:44PM 37.3772 -91.4350 220° Southwest 167 192 8,000  Level Kansas City Center
12:45PM 37.3400 -91.4733 219° Southwest 170 196 8,000  Level Kansas City Center
12:46PM 37.3042 -91.5117 220° Southwest 170 196 8,000  Level Kansas City Center
12:47PM 37.2683 -91.5486 219° Southwest 167 192 8,000  Level Kansas City Center
12:48PM 37.2314 -91.5889 221° Southwest 173 199 8,000  Level Kansas City Center
12:49PM 37.1931 -91.6289 220° Southwest 176 203 8,000  Level Kansas City Center
12:50PM 37.1489 -91.6756 220° Southwest 174 200 8,000  Level Kansas City Center
12:51PM 37.1111 -91.7136 219° Southwest 174 200 8,000  Level Kansas City Center
12:52PM 37.0747 -91.7497 218° Southwest 169 194 8,100  Climbing Kansas City Center
12:53PM 37.0381 -91.7892 221° Southwest 171 197 8,100  Level Kansas City Center
12:54PM 36.9997 -91.8308 221° Southwest 176 203 8,100  Level Kansas City Center
12:55PM 36.9617 -91.8694 219° Southwest 177 204 8,100  Level Kansas City Center
12:56PM 36.9244 -91.9075 219° Southwest 175 201 8,100  Level Kansas City Center
12:57PM 36.8808 -91.9522 219° Southwest 172 198 8,100 -180 Level Kansas City Center
12:58PM 36.8425 -91.9900 218° Southwest 173 199 7,800 -300 Descending Kansas City Center
01:00PM 36.8019 -92.0294 218° Southwest 177 204 7,600 -240 Descending Kansas City Center
01:01PM 36.7628 -92.0725 221° Southwest 181 208 7,400 -360 Descending Kansas City Center
01:02PM 36.7219 -92.1161 221° Southwest 185 213 6,900 -540 Descending Kansas City Center
01:03PM 36.6800 -92.1603 220° Southwest 191 220 6,300 -780 Descending Kansas City Center
01:04PM 36.6372 -92.2042 219° Southwest 194 223 5,400 -960 Descending Kansas City Center
01:05PM 36.5814 -92.2508 214° Southwest 200 230 4,400 -1,020 Descending Kansas City Center